Time;durP1;ratioP1;P1;durP2;ratioP2;P2;SDS_P1;SDS_P2;PMS_P1;PMS_P2;Temp;Humidity;BMP_temperature;BMP_pressure;BME280_temperature;BME280_humidity;BME280_pressure;Samples;Min_cycle;Max_cycle;Signal;HPM_P1;HPM_P2
2023/04/17 00:00:14;;;;;;;;;;;;;;;15.22;100.00;100236.34;4998533;27;19918;-78
2023/04/17 00:02:39;;;;;;;;;;;;;;;15.18;100.00;100249.47;4985886;28;20000;-79
2023/04/17 00:05:07;;;;;;;;;;;;;;;13.28;100.00;100188.97;4999627;28;19926;-78
2023/04/17 00:07:33;;;;;;;;;;;;;;;13.02;100.00;100268.88;4999709;27;19922;-79
2023/04/17 00:09:58;;;;;;;;;;;;;;;13.65;100.00;100353.75;4982991;28;19957;-78
2023/04/17 00:12:23;;;;;;;;;;;;;;;14.61;100.00;100379.03;4997966;28;19930;-78
2023/04/17 00:14:49;;;;;;;;;;;;;;;13.97;100.00;100269.25;4999185;27;20032;-79
2023/04/17 00:17:14;;;;;;;;;;;;;;;13.69;100.00;100295.00;4986384;28;19917;-78
2023/04/17 00:19:39;;;;;;;;;;;;;;;14.35;100.00;100352.91;4984114;28;19913;-79
2023/04/17 00:22:04;;;;;;;;;;;;;;;13.70;100.00;100315.63;4985560;28;19945;-79
2023/04/17 00:24:30;;;;;;;;;;;;;;;13.75;100.00;100334.53;4981818;28;20260;-79
2023/04/17 00:26:56;;;;;;;;;;;;;;;12.77;100.00;100305.56;4983456;28;20491;-79
2023/04/17 00:29:21;;;;;;;;;;;;;;;13.00;100.00;100363.72;4982032;28;19936;-79
2023/04/17 00:31:46;;;;;;;;;;;;;;;14.77;100.00;100414.94;4998781;27;20190;-78
2023/04/17 00:34:11;;;;;;;;;;;;;;;13.76;100.00;100361.25;4981174;28;19945;-79
2023/04/17 00:36:36;;;;;;;;;;;;;;;13.70;100.00;100320.81;4985247;28;19922;-79
2023/04/17 00:39:02;;;;;;;;;;;;;;;13.79;100.00;100335.28;4981905;28;19922;-78
2023/04/17 00:41:27;;;;;;;;;;;;;;;14.20;100.00;100334.25;4999551;27;20083;-77
2023/04/17 00:43:52;;;;;;;;;;;;;;;13.89;100.00;100291.88;4986418;28;19924;-78
2023/04/17 00:46:17;;;;;;;;;;;;;;;12.48;100.00;100282.91;4996655;27;19921;-78
2023/04/17 00:48:43;;;;;;;;;;;;;;;12.91;100.00;100394.06;5001458;27;19969;-78
2023/04/17 00:51:08;;;;;;;;;;;;;;;12.94;100.00;100435.38;4978407;28;19967;-78
2023/04/17 00:53:33;;;;;;;;;;;;;;;12.16;100.00;100467.72;4983489;28;20398;-78
2023/04/17 00:55:59;;;;;;;;;;;;;;;11.77;100.00;100508.66;4979926;28;19929;-78
2023/04/17 00:58:24;;;;;;;;;;;;;;;12.42;100.00;100598.22;4995322;27;19917;-78
2023/04/17 01:00:50;;;;;;;;;;;;;;;13.05;100.00;100655.03;4981349;28;19926;-79
2023/04/17 01:03:15;;;;;;;;;;;;;;;12.90;100.00;100663.84;4979797;28;19932;-78
2023/04/17 01:05:41;;;;;;;;;;;;;;;12.79;100.00;100660.56;4981773;28;19929;-78
2023/04/17 01:08:06;;;;;;;;;;;;;;;12.53;100.00;100672.13;5004223;27;20383;-78
2023/04/17 01:10:31;;;;;;;;;;;;;;;12.95;100.00;100716.38;4984223;28;20371;-78
2023/04/17 01:13:00;;;;;;;;;;;;;;;13.48;100.00;100715.59;4985979;28;19929;-78
2023/04/17 01:15:26;;;;;;;;;;;;;;;13.64;100.00;100660.09;5003559;27;20410;-78
2023/04/17 01:17:51;;;;;;;;;;;;;;;13.91;100.00;100580.16;5000960;28;19924;-78
2023/04/17 01:20:16;;;;;;;;;;;;;;;13.96;100.00;100547.28;4985043;28;19922;-78
2023/04/17 01:22:41;;;;;;;;;;;;;;;13.26;100.00;100496.00;4987264;28;19921;-78
2023/04/17 01:25:07;;;;;;;;;;;;;;;12.04;100.00;100519.50;5002713;28;19962;-79
2023/04/17 01:27:34;;;;;;;;;;;;;;;13.66;100.00;100562.56;4985991;28;19945;-78
2023/04/17 01:29:59;;;;;;;;;;;;;;;12.71;100.00;100507.31;4984479;28;19994;-78
2023/04/17 01:32:24;;;;;;;;;;;;;;;12.38;100.00;100576.72;4989586;28;20375;-79
2023/04/17 01:34:49;;;;;;;;;;;;;;;12.90;100.00;100631.97;4989345;28;19963;-79
2023/04/17 01:37:15;;;;;;;;;;;;;;;13.67;100.00;100667.81;4986323;28;20283;-78
2023/04/17 01:39:40;;;;;;;;;;;;;;;12.65;100.00;100564.28;5004877;28;20199;-78
2023/04/17 01:42:05;;;;;;;;;;;;;;;13.48;100.00;100594.81;4988337;28;19941;-79
2023/04/17 01:44:30;;;;;;;;;;;;;;;13.50;100.00;100581.81;4984469;28;19925;-78
2023/04/17 01:46:56;;;;;;;;;;;;;;;12.83;100.00;100542.47;5006674;28;19999;-78
2023/04/17 01:49:21;;;;;;;;;;;;;;;14.34;100.00;100581.84;4989500;28;19918;-78
2023/04/17 01:51:46;;;;;;;;;;;;;;;14.20;100.00;100533.78;4992207;28;19928;-78
2023/04/17 01:54:14;;;;;;;;;;;;;;;13.82;100.00;100506.09;4991795;28;19952;-78
2023/04/17 01:56:39;;;;;;;;;;;;;;;13.18;100.00;100447.00;5007748;27;19956;-78
2023/04/17 01:59:04;;;;;;;;;;;;;;;14.32;100.00;100505.88;5003551;27;19922;-79
2023/04/17 02:01:29;;;;;;;;;;;;;;;13.12;100.00;100467.81;4990442;28;19915;-78
2023/04/17 02:03:55;;;;;;;;;;;;;;;13.71;100.00;100488.22;4993072;28;19977;-79
2023/04/17 02:06:20;;;;;;;;;;;;;;;13.83;100.00;100481.09;4990733;28;19926;-79
2023/04/17 02:08:45;;;;;;;;;;;;;;;15.16;100.00;100430.28;5004219;27;19918;-78
2023/04/17 02:11:12;;;;;;;;;;;;;;;15.02;100.00;100301.81;4988601;28;20852;-79
2023/04/17 02:13:37;;;;;;;;;;;;;;;15.71;100.00;100187.19;5006797;27;19917;-78
2023/04/17 02:16:02;;;;;;;;;;;;;;;16.00;100.00;100094.41;4987984;28;20026;-79
2023/04/17 02:18:28;;;;;;;;;;;;;;;15.36;100.00;99984.13;4990879;28;19950;-78
2023/04/17 02:20:53;;;;;;;;;;;;;;;16.36;100.00;99898.94;4989907;28;19915;-78
2023/04/17 02:23:18;;;;;;;;;;;;;;;16.57;100.00;99834.78;4987837;28;19949;-79
2023/04/17 02:25:43;;;;;;;;;;;;;;;17.03;100.00;99755.56;4988585;28;19926;-78
2023/04/17 02:28:09;;;;;;;;;;;;;;;17.10;100.00;99711.88;5003930;28;19922;-78
2023/04/17 02:30:34;;;;;;;;;;;;;;;15.66;100.00;99685.28;5007330;27;19932;-78
2023/04/17 02:32:59;;;;;;;;;;;;;;;16.42;100.00;99686.38;5004877;27;19931;-78
2023/04/17 02:35:25;;;;;;;;;;;;;;;16.92;100.00;99658.94;5006100;27;19926;-78
2023/04/17 02:37:51;;;;;;;;;;;;;;;15.63;100.00;99675.06;5001341;27;19963;-78
2023/04/17 02:40:16;;;;;;;;;;;;;;;17.01;100.00;99650.69;5003969;28;19925;-78
2023/04/17 02:42:41;;;;;;;;;;;;;;;16.39;100.00;99616.28;5005496;28;19941;-78
2023/04/17 02:45:07;;;;;;;;;;;;;;;16.88;100.00;99618.41;5003740;27;19918;-78
2023/04/17 02:47:32;;;;;;;;;;;;;;;16.65;100.00;99620.31;5005255;27;19922;-78
2023/04/17 02:49:59;;;;;;;;;;;;;;;15.17;100.00;99651.00;4989949;28;19929;-78
2023/04/17 02:52:24;;;;;;;;;;;;;;;15.85;100.00;99665.47;5001690;28;19952;-78
2023/04/17 02:54:50;;;;;;;;;;;;;;;14.90;100.00;99690.09;4988182;28;19922;-78
2023/04/17 02:57:15;;;;;;;;;;;;;;;15.20;100.00;99728.69;4999939;27;20217;-78
2023/04/17 02:59:40;;;;;;;;;;;;;;;15.38;100.00;99712.41;4987595;28;19917;-79
2023/04/17 03:02:05;;;;;;;;;;;;;;;14.99;100.00;99710.47;5001724;27;19945;-78
2023/04/17 03:04:33;;;;;;;;;;;;;;;15.97;100.00;99756.78;4986085;28;19917;-78
2023/04/17 03:06:58;;;;;;;;;;;;;;;14.98;100.00;99705.34;5001240;27;20699;-78
2023/04/17 03:09:24;;;;;;;;;;;;;;;15.45;100.00;99700.00;4983554;28;19945;-78
2023/04/17 03:11:50;;;;;;;;;;;;;;;14.18;100.00;99741.94;5004406;27;19925;-78
2023/04/17 03:14:15;;;;;;;;;;;;;;;14.64;100.00;99805.13;5002256;27;20465;-78
2023/04/17 03:16:40;;;;;;;;;;;;;;;13.43;100.00;99866.88;5002244;27;19914;-78
2023/04/17 03:19:05;;;;;;;;;;;;;;;14.18;100.00;99925.88;4988195;28;19917;-78
2023/04/17 03:21:30;;;;;;;;;;;;;;;13.64;100.00;99932.72;4985303;28;19930;-78
2023/04/17 03:23:56;;;;;;;;;;;;;;;15.02;100.00;99940.38;5002264;27;20040;-78
2023/04/17 03:26:21;;;;;;;;;;;;;;;14.09;100.00;99955.50;5001248;27;19979;-78
2023/04/17 03:28:46;;;;;;;;;;;;;;;15.29;100.00;99966.25;4987283;28;19976;-78
2023/04/17 03:31:11;;;;;;;;;;;;;;;14.86;100.00;99906.34;4991911;28;20063;-78
2023/04/17 03:33:37;;;;;;;;;;;;;;;14.62;100.00;99884.72;4988625;28;20387;-78
2023/04/17 03:36:02;;;;;;;;;;;;;;;14.89;100.00;99895.00;4986983;28;20290;-78
2023/04/17 03:38:28;;;;;;;;;;;;;;;13.82;100.00;99913.16;4986271;28;19936;-78
2023/04/17 03:40:53;;;;;;;;;;;;;;;13.46;100.00;99997.94;4986363;28;19923;-78
2023/04/17 03:43:18;;;;;;;;;;;;;;;14.41;100.00;100021.00;5003420;27;20441;-78
2023/04/17 03:45:43;;;;;;;;;;;;;;;14.79;100.00;100018.97;5001559;27;19940;-79
2023/04/17 03:48:09;;;;;;;;;;;;;;;14.92;100.00;99965.78;5003526;27;19921;-81
2023/04/17 03:50:34;;;;;;;;;;;;;;;14.84;100.00;99918.50;4989024;28;19921;-78
2023/04/17 03:52:59;;;;;;;;;;;;;;;15.10;100.00;99911.56;5059902;28;19910;-81
2023/04/17 03:55:24;;;;;;;;;;;;;;;15.03;100.00;99888.44;4987626;28;20048;-80
2023/04/17 03:57:50;;;;;;;;;;;;;;;15.17;100.00;99874.13;5001459;27;19961;-78
2023/04/17 04:00:16;;;;;;;;;;;;;;;14.30;100.00;99860.72;4987728;28;19968;-79
2023/04/17 04:02:41;;;;;;;;;;;;;;;14.94;100.00;99893.09;5011222;27;19918;-79
2023/04/17 04:05:06;;;;;;;;;;;;;;;13.47;100.00;99914.22;4981550;28;19960;-80
2023/04/17 04:07:31;;;;;;;;;;;;;;;13.35;100.00;99973.19;4982567;28;19922;-80
2023/04/17 04:09:57;;;;;;;;;;;;;;;13.95;100.00;100035.34;4986578;28;20049;-80
2023/04/17 04:12:22;;;;;;;;;;;;;;;13.48;100.00;100047.88;5001951;27;20416;-79
2023/04/17 04:14:47;;;;;;;;;;;;;;;14.32;100.00;100054.97;4986099;28;20344;-80
2023/04/17 04:17:12;;;;;;;;;;;;;;;14.37;100.00;100056.56;5002381;27;20544;-79
2023/04/17 04:19:38;;;;;;;;;;;;;;;13.35;100.00;100042.22;5001012;27;19993;-81
2023/04/17 04:22:03;;;;;;;;;;;;;;;12.62;100.00;100096.56;5001267;27;19921;-80
2023/04/17 04:24:29;;;;;;;;;;;;;;;13.70;100.00;100186.19;4987699;28;19952;-78
2023/04/17 04:27:01;;;;;;;;;;;;;;;12.78;100.00;100188.38;4991318;28;19972;-79
2023/04/17 04:29:26;;;;;;;;;;;;;;;12.18;100.00;100253.31;4987012;28;19925;-78
2023/04/17 04:31:51;;;;;;;;;;;;;;;12.10;100.00;100355.03;5006444;27;19988;-78
2023/04/17 04:34:17;;;;;;;;;;;;;;;11.92;100.00;100401.78;4990381;28;19906;-78
2023/04/17 04:36:48;;;;;;;;;;;;;;;11.89;100.00;100474.13;5009127;27;20287;-78
2023/04/17 04:39:19;;;;;;;;;;;;;;;12.80;100.00;100551.13;5005637;27;19918;-79
2023/04/17 04:41:54;;;;;;;;;;;;;;;12.65;100.00;100574.63;4991319;28;19913;-79
2023/04/17 04:44:20;;;;;;;;;;;;;;;11.72;100.00;100565.50;4989032;28;19926;-79
2023/04/17 04:46:45;;;;;;;;;;;;;;;11.73;100.00;100621.41;5004330;28;19953;-78
2023/04/17 04:49:10;;;;;;;;;;;;;;;12.23;100.00;100685.44;5005805;28;19918;-79
2023/04/17 04:51:36;;;;;;;;;;;;;;;12.80;100.00;100711.41;5005816;27;19936;-79
2023/04/17 04:54:01;;;;;;;;;;;;;;;12.65;100.00;100683.19;5005632;28;19983;-79
2023/04/17 04:56:27;;;;;;;;;;;;;;;12.51;100.00;100681.63;5003777;28;19913;-79
2023/04/17 04:58:52;;;;;;;;;;;;;;;13.19;100.00;100701.38;4986492;28;20005;-79
2023/04/17 05:01:17;;;;;;;;;;;;;;;13.89;100.00;100651.84;5004162;28;19922;-79
2023/04/17 05:03:46;;;;;;;;;;;;;;;13.60;100.00;100596.31;4990590;28;20015;-79
2023/04/17 05:06:12;;;;;;;;;;;;;;;13.68;100.00;100493.44;4986679;28;19964;-78
2023/04/17 05:08:37;;;;;;;;;;;;;;;14.17;100.00;100509.69;5005065;27;19917;-79
2023/04/17 05:11:03;;;;;;;;;;;;;;;14.56;100.00;100409.41;4988168;28;20200;-79
2023/04/17 05:13:31;;;;;;;;;;;;;;;13.85;100.00;100313.59;5002691;27;19932;-79
2023/04/17 05:15:56;;;;;;;;;;;;;;;14.23;100.00;100336.78;4985249;28;20441;-80
2023/04/17 05:18:22;;;;;;;;;;;;;;;13.89;100.00;100299.66;5000571;28;19929;-79
2023/04/17 05:20:47;;;;;;;;;;;;;;;12.55;100.00;100280.16;5003162;27;19917;-79
2023/04/17 05:23:12;;;;;;;;;;;;;;;12.95;100.00;100416.41;4988005;28;20093;-79
2023/04/17 05:25:38;;;;;;;;;;;;;;;13.80;100.00;100448.34;4986062;28;20031;-79
2023/04/17 05:28:03;;;;;;;;;;;;;;;13.42;100.00;100337.88;5000779;28;19973;-80
2023/04/17 05:30:28;;;;;;;;;;;;;;;13.81;100.00;100349.06;4991185;28;19967;-80
2023/04/17 05:32:53;;;;;;;;;;;;;;;14.18;100.00;100377.50;5006375;28;20375;-80
2023/04/17 05:35:19;;;;;;;;;;;;;;;14.60;100.00;100341.03;4988280;28;19918;-80
2023/04/17 05:37:44;;;;;;;;;;;;;;;13.60;100.00;100236.53;5005129;28;19925;-80
2023/04/17 05:40:10;;;;;;;;;;;;;;;13.33;100.00;100228.53;4987827;28;19961;-80
2023/04/17 05:42:36;;;;;;;;;;;;;;;13.50;100.00;100323.91;4984864;28;19922;-80
2023/04/17 05:45:01;;;;;;;;;;;;;;;14.34;100.00;100300.22;5007433;28;19918;-80
2023/04/17 05:47:26;;;;;;;;;;;;;;;13.29;100.00;100351.06;5001929;28;19922;-79
2023/04/17 05:49:56;;;;;;;;;;;;;;;13.51;100.00;100381.69;4985983;28;19921;-80
2023/04/17 05:52:21;;;;;;;;;;;;;;;14.26;100.00;100358.34;4986971;28;19925;-80
2023/04/17 05:54:46;;;;;;;;;;;;;;;12.03;100.00;100321.59;5005079;28;19913;-80
2023/04/17 05:57:12;;;;;;;;;;;;;;;11.86;100.00;100456.03;5001866;28;19918;-79
2023/04/17 05:59:37;;;;;;;;;;;;;;;12.38;100.00;100583.63;4982088;28;19913;-79
2023/04/17 06:02:03;;;;;;;;;;;;;;;13.25;100.00;100672.81;4984762;28;19957;-78
2023/04/17 06:04:28;;;;;;;;;;;;;;;12.79;100.00;100628.69;4986624;28;20453;-77
2023/04/17 06:06:54;;;;;;;;;;;;;;;12.13;100.00;100644.22;4982975;28;19922;-77
2023/04/17 06:09:19;;;;;;;;;;;;;;;12.66;100.00;100701.25;4991710;28;20520;-77
2023/04/17 06:11:44;;;;;;;;;;;;;;;13.27;100.00;100720.19;4994759;28;20450;-77
2023/04/17 06:14:09;;;;;;;;;;;;;;;12.89;100.00;100654.41;5021313;28;20395;-77
2023/04/17 06:16:34;;;;;;;;;;;;;;;12.97;100.00;100690.47;5017916;28;19921;-77
2023/04/17 06:19:00;;;;;;;;;;;;;;;13.12;100.00;100702.34;5010696;28;19917;-77
2023/04/17 06:21:25;;;;;;;;;;;;;;;12.33;100.00;100687.03;5003804;28;19928;-76
2023/04/17 06:23:50;;;;;;;;;;;;;;;13.64;100.00;100735.19;4982995;28;19917;-76
2023/04/17 06:26:16;;;;;;;;;;;;;;;13.42;100.00;100729.50;4991740;28;19934;-76
2023/04/17 06:28:41;;;;;;;;;;;;;;;12.20;100.00;100654.47;4996424;28;20612;-76
2023/04/17 06:31:06;;;;;;;;;;;;;;;12.33;100.00;100703.38;4979516;28;19933;-76
2023/04/17 06:33:31;;;;;;;;;;;;;;;13.47;100.00;100783.78;4992930;28;19918;-76
2023/04/17 06:35:57;;;;;;;;;;;;;;;12.80;100.00;100706.25;4984962;28;20179;-76
2023/04/17 06:38:22;;;;;;;;;;;;;;;12.63;100.00;100692.69;4984996;28;20872;-78
2023/04/17 06:40:47;;;;;;;;;;;;;;;13.59;100.00;100711.09;5006335;28;19921;-78
2023/04/17 06:43:14;;;;;;;;;;;;;;;12.15;100.00;100636.44;5016195;28;19924;-77
2023/04/17 06:45:42;;;;;;;;;;;;;;;12.33;100.00;100658.59;5034991;28;19918;-77
2023/04/17 06:48:08;;;;;;;;;;;;;;;12.87;100.00;100746.66;5007910;28;20008;-77
2023/04/17 06:50:33;;;;;;;;;;;;;;;13.96;100.00;100732.03;5034077;28;20385;-77
2023/04/17 06:52:58;;;;;;;;;;;;;;;13.22;100.00;100670.25;5019142;28;19917;-77
2023/04/17 06:55:25;;;;;;;;;;;;;;;12.93;100.00;100642.25;5031723;28;19945;-77
2023/04/17 06:57:50;;;;;;;;;;;;;;;13.18;100.00;100690.16;5028570;28;19913;-77
2023/04/17 07:00:16;;;;;;;;;;;;;;;12.62;100.00;100688.41;5020525;28;19917;-77
2023/04/17 07:02:41;;;;;;;;;;;;;;;11.91;100.00;100715.06;5014612;28;19962;-77
2023/04/17 07:05:06;;;;;;;;;;;;;;;12.55;100.00;100781.50;5020880;28;20314;-77
2023/04/17 07:07:33;;;;;;;;;;;;;;;11.98;100.00;100794.16;4991243;28;19925;-76
2023/04/17 07:09:58;;;;;;;;;;;;;;;11.10;100.00;100786.16;5001547;28;19919;-77
2023/04/17 07:12:24;;;;;;;;;;;;;;;12.23;100.00;100907.59;4986831;28;19918;-77
2023/04/17 07:14:49;;;;;;;;;;;;;;;12.01;100.00;100917.22;4987367;28;19978;-77
2023/04/17 07:17:14;;;;;;;;;;;;;;;11.66;100.00;100923.44;5002771;27;19993;-77
2023/04/17 07:19:39;;;;;;;;;;;;;;;12.37;100.00;100983.25;4984592;28;19953;-77
2023/04/17 07:22:04;;;;;;;;;;;;;;;11.14;100.00;100932.25;4999092;28;19968;-77
2023/04/17 07:24:33;;;;;;;;;;;;;;;11.89;100.00;101000.78;4986109;28;19929;-77
2023/04/17 07:27:00;;;;;;;;;;;;;;;12.01;100.00;101038.59;4989211;28;19923;-77
2023/04/17 07:29:25;;;;;;;;;;;;;;;12.63;100.00;101072.63;5001571;27;20348;-78
2023/04/17 07:31:50;;;;;;;;;;;;;;;13.24;100.00;101116.13;4986875;28;20008;-77
2023/04/17 07:34:16;;;;;;;;;;;;;;;11.62;100.00;101030.97;4984826;28;20016;-77
2023/04/17 07:36:41;;;;;;;;;;;;;;;11.40;100.00;101071.44;4988689;28;19972;-77
2023/04/17 07:39:06;;;;;;;;;;;;;;;13.77;100.00;101186.38;4983513;28;19918;-77
2023/04/17 07:41:32;;;;;;;;;;;;;;;13.70;100.00;101061.31;4985839;28;19921;-77
2023/04/17 07:43:57;;;;;;;;;;;;;;;12.83;100.00;100966.47;4989172;28;21145;-77
2023/04/17 07:46:22;;;;;;;;;;;;;;;13.14;100.00;100946.34;4984745;28;19933;-77
2023/04/17 07:48:47;;;;;;;;;;;;;;;12.75;100.00;100948.47;4988862;28;19918;-77
2023/04/17 07:51:13;;;;;;;;;;;;;;;12.59;100.00;100957.22;4984182;28;19925;-77
2023/04/17 07:53:38;;;;;;;;;;;;;;;13.73;100.00;101032.81;4999464;28;20353;-77
2023/04/17 07:56:04;;;;;;;;;;;;;;;13.45;100.00;100958.94;4990033;28;20509;-77
2023/04/17 07:58:30;;;;;;;;;;;;;;;13.09;100.00;100880.84;4982707;28;19918;-77
2023/04/17 08:00:56;;;;;;;;;;;;;;;13.73;100.00;100916.28;4987694;28;19940;-78
2023/04/17 08:03:22;;;;;;;;;;;;;;;13.51;100.00;100858.75;5001315;28;19922;-77
2023/04/17 08:05:48;;;;;;;;;;;;;;;13.72;100.00;100816.16;4988183;28;19941;-77
2023/04/17 08:08:14;;;;;;;;;;;;;;;13.36;100.00;100823.63;4987017;28;19963;-77
2023/04/17 08:10:39;;;;;;;;;;;;;;;13.36;100.00;100823.63;4983278;28;20008;-77
2023/04/17 08:13:05;;;;;;;;;;;;;;;13.58;100.00;100846.59;4997660;27;19997;-76
2023/04/17 08:15:30;;;;;;;;;;;;;;;13.79;100.00;100812.59;4996742;27;19918;-76
2023/04/17 08:17:56;;;;;;;;;;;;;;;14.28;100.00;100768.56;5001389;27;20778;-77
2023/04/17 08:20:22;;;;;;;;;;;;;;;13.57;100.00;100671.44;4999715;27;19960;-77
2023/04/17 08:22:47;;;;;;;;;;;;;;;14.22;100.00;100630.47;4987916;28;19972;-76
2023/04/17 08:25:12;;;;;;;;;;;;;;;13.20;100.00;100537.50;4996402;28;19979;-77
2023/04/17 08:27:39;;;;;;;;;;;;;;;12.78;100.00;100570.97;4983564;28;19924;-77
2023/04/17 08:30:05;;;;;;;;;;;;;;;13.01;100.00;100585.25;4997522;27;20360;-77
2023/04/17 08:32:36;;;;;;;;;;;;;;;14.12;100.00;100618.59;4998133;27;19995;-76
2023/04/17 08:35:01;;;;;;;;;;;;;;;13.05;100.00;100548.13;4999344;27;19928;-77
2023/04/17 08:37:27;;;;;;;;;;;;;;;12.42;100.00;100557.72;4999758;28;19917;-77
2023/04/17 08:39:52;;;;;;;;;;;;;;;13.75;100.00;100624.53;4983680;28;19997;-77
2023/04/17 08:42:17;;;;;;;;;;;;;;;13.93;100.00;100534.38;4995912;27;20279;-77
2023/04/17 08:44:43;;;;;;;;;;;;;;;13.96;100.00;100516.19;4984407;28;19917;-77
2023/04/17 08:47:08;;;;;;;;;;;;;;;14.20;100.00;100484.53;4997295;28;19917;-77
2023/04/17 08:49:34;;;;;;;;;;;;;;;14.56;100.00;100463.00;4983810;28;19922;-76
2023/04/17 08:52:03;;;;;;;;;;;;;;;13.84;100.00;100407.69;4999780;27;20453;-77
2023/04/17 08:54:28;;;;;;;;;;;;;;;14.09;100.00;100387.25;4980853;28;19914;-76
2023/04/17 08:56:53;;;;;;;;;;;;;;;15.68;100.00;100416.63;4981021;28;19928;-77
2023/04/17 08:59:19;;;;;;;;;;;;;;;14.51;100.00;100237.56;4981099;28;19918;-77
2023/04/17 09:02:03;;;;;;;;;;;;;;;13.72;100.00;100240.53;4986306;28;19925;-76
2023/04/17 09:04:33;;;;;;;;;;;;;;;15.18;100.00;100267.63;5001015;28;19918;-77
2023/04/17 09:06:58;;;;;;;;;;;;;;;15.88;100.00;100251.56;5001254;27;19984;-77
2023/04/17 09:09:24;;;;;;;;;;;;;;;14.64;100.00;100150.81;4999342;27;20853;-77
2023/04/17 09:12:08;;;;;;;;;;;;;;;15.13;100.00;100169.16;4984146;28;20671;-77
2023/04/17 09:14:34;;;;;;;;;;;;;;;15.14;100.00;100112.91;4999820;28;20012;-77
2023/04/17 09:16:59;;;;;;;;;;;;;;;14.07;100.00;100071.28;4983876;28;20100;-76
2023/04/17 09:19:25;;;;;;;;;;;;;;;15.05;100.00;100089.00;4984131;28;19918;-77
2023/04/17 09:21:50;;;;;;;;;;;;;;;13.80;100.00;100104.81;4986050;28;20942;-76
2023/04/17 09:24:15;;;;;;;;;;;;;;;14.21;100.00;100110.56;4997615;27;20398;-77
2023/04/17 09:26:40;;;;;;;;;;;;;;;13.95;100.00;100120.81;4998455;28;19933;-76
2023/04/17 09:29:13;;;;;;;;;;;;;;;15.11;100.00;100157.97;4986736;28;19918;-77
2023/04/17 09:31:39;;;;;;;;;;;;;;;15.59;100.00;100096.69;4983364;28;19936;-77
2023/04/17 09:34:09;;;;;;;;;;;;;;;16.45;100.00;100060.59;4983170;28;20033;-77
2023/04/17 09:36:37;;;;;;;;;;;;;;;17.05;100.00;100008.75;4996742;28;19925;-77
2023/04/17 09:39:03;;;;;;;;;;;;;;;16.75;100.00;99917.22;5001855;28;20385;-77
2023/04/17 09:41:29;;;;;;;;;;;;;;;16.28;100.00;99902.72;4997317;28;19918;-77
2023/04/17 09:43:55;;;;;;;;;;;;;;;16.31;100.00;99901.75;4985886;28;19930;-77
2023/04/17 09:46:30;;;;;;;;;;;;;;;16.55;100.00;99879.06;4996616;28;19918;-77
2023/04/17 09:48:55;;;;;;;;;;;;;;;17.38;100.00;99859.81;4985559;28;19942;-77
2023/04/17 09:51:21;;;;;;;;;;;;;;;15.74;100.00;99865.06;5000940;28;20536;-77
2023/04/17 09:53:48;;;;;;;;;;;;;;;16.27;100.00;99838.63;4978920;28;19922;-77
2023/04/17 09:56:13;;;;;;;;;;;;;;;15.72;100.00;99794.16;4981572;28;19918;-77
2023/04/17 09:58:38;;;;;;;;;;;;;;;17.37;100.00;99764.38;4996678;28;19936;-76
2023/04/17 10:01:04;;;;;;;;;;;;;;;16.60;100.00;99783.47;4999397;28;19917;-77
2023/04/17 10:03:29;;;;;;;;;;;;;;;16.64;100.00;99779.84;4982781;28;20032;-77
2023/04/17 10:05:54;;;;;;;;;;;;;;;16.39;100.00;99768.84;4981382;28;20291;-77
2023/04/17 10:08:19;;;;;;;;;;;;;;;15.15;100.00;99779.94;4999097;27;20436;-77
2023/04/17 10:10:45;;;;;;;;;;;;;;;16.29;100.00;99779.63;5000611;27;19964;-76
2023/04/17 10:13:11;;;;;;;;;;;;;;;17.76;100.00;99730.31;5000850;27;19922;-76
2023/04/17 10:15:36;;;;;;;;;;;;;;;16.51;100.00;99743.16;4988261;28;19917;-77
2023/04/17 10:18:26;;;;;;;;;;;;;;;16.45;100.00;99738.22;4987497;28;19917;-77
2023/04/17 10:20:52;;;;;;;;;;;;;;;16.54;100.00;99775.97;4986642;28;19918;-77
2023/04/17 10:23:28;;;;;;;;;;;;;;;17.15;100.00;99722.91;4985438;28;19921;-77
2023/04/17 10:26:13;;;;;;;;;;;;;;;16.07;100.00;99709.53;5003343;27;19926;-77
2023/04/17 10:28:48;;;;;;;;;;;;;;;17.04;100.00;99681.78;4985846;28;20004;-77
2023/04/17 10:31:13;;;;;;;;;;;;;;;18.28;100.00;99668.66;5000065;27;19924;-77
2023/04/17 10:33:48;;;;;;;;;;;;;;;17.02;100.00;99673.22;5003351;27;21185;-77
2023/04/17 10:36:32;;;;;;;;;;;;;;;17.21;100.00;99703.56;4998250;27;19994;-76
2023/04/17 10:39:10;;;;;;;;;;;;;;;17.12;100.00;99715.25;5000827;27;20063;-77
2023/04/17 10:41:46;;;;;;;;;;;;;;;18.22;100.00;99693.28;5000268;27;20072;-75
2023/04/17 10:44:11;;;;;;;;;;;;;;;17.11;100.00;99659.75;5003353;27;19917;-76
2023/04/17 10:46:37;;;;;;;;;;;;;;;18.12;100.00;99647.78;4988811;28;19926;-77
2023/04/17 10:49:02;;;;;;;;;;;;;;;17.01;100.00;99650.69;5001167;27;20283;-76
2023/04/17 10:51:27;;;;;;;;;;;;;;;17.56;100.00;99665.34;5003800;27;20415;-77
2023/04/17 10:53:53;;;;;;;;;;;;;;;17.46;100.00;99658.94;4989171;28;19917;-76
2023/04/17 10:56:18;;;;;;;;;;;;;;;16.99;100.00;99639.53;4984763;28;20291;-77
2023/04/17 10:59:10;;;;;;;;;;;;;;;17.41;100.00;99640.09;5003750;27;19956;-77
2023/04/17 11:01:37;;;;;;;;;;;;;;;17.93;100.00;99640.94;4983401;28;20458;-77
2023/04/17 11:04:03;;;;;;;;;;;;;;;18.30;100.00;99656.38;5002736;27;20262;-76
2023/04/17 11:06:30;;;;;;;;;;;;;;;16.78;100.00;99628.34;5000363;28;19932;-76
2023/04/17 11:08:56;;;;;;;;;;;;;;;17.06;100.00;99619.25;5000192;27;19918;-77
2023/04/17 11:11:21;;;;;;;;;;;;;;;16.85;100.00;99653.19;4987122;28;19983;-77
2023/04/17 11:13:47;;;;;;;;;;;;;;;18.23;100.00;99618.53;4986529;28;19920;-77
2023/04/17 11:16:13;;;;;;;;;;;;;;;17.90;100.00;99611.56;4985309;28;19964;-76
2023/04/17 11:18:38;;;;;;;;;;;;;;;18.79;100.00;99599.81;4981268;28;19925;-76
2023/04/17 11:21:03;;;;;;;;;;;;;;;17.59;98.87;99607.94;5001169;28;19918;-76
2023/04/17 11:23:32;;;;;;;;;;;;;;;17.76;96.83;99591.41;4985724;28;20032;-76
2023/04/17 11:25:57;;;;;;;;;;;;;;;18.49;99.15;99611.91;5000252;27;19926;-77
2023/04/17 11:28:23;;;;;;;;;;;;;;;20.25;92.44;99551.94;4984984;28;19924;-77
2023/04/17 11:30:48;;;;;;;;;;;;;;;19.24;88.66;99555.47;5003531;27;20036;-76
2023/04/17 11:33:14;;;;;;;;;;;;;;;18.69;90.44;99585.53;4999787;27;19964;-76
2023/04/17 11:35:40;;;;;;;;;;;;;;;17.97;89.00;99576.44;5000265;27;19962;-76
2023/04/17 11:38:19;;;;;;;;;;;;;;;18.90;93.83;99601.78;5001119;27;19921;-76
2023/04/17 11:40:55;;;;;;;;;;;;;;;17.98;94.07;99607.63;4990568;28;19914;-76
2023/04/17 11:43:21;;;;;;;;;;;;;;;18.76;88.99;99571.22;5000590;28;19921;-77
2023/04/17 11:45:47;;;;;;;;;;;;;;;19.04;88.46;99567.06;5000282;27;19922;-76
2023/04/17 11:48:13;;;;;;;;;;;;;;;20.07;85.22;99540.03;5001174;27;19917;-76
2023/04/17 11:50:39;;;;;;;;;;;;;;;20.88;85.32;99545.28;5002732;27;19924;-78
2023/04/17 11:53:05;;;;;;;;;;;;;;;19.66;84.32;99548.63;5005310;27;19918;-77
2023/04/17 11:55:30;;;;;;;;;;;;;;;18.51;83.52;99560.50;4981458;28;19921;-76
2023/04/17 11:57:57;;;;;;;;;;;;;;;18.62;87.27;99584.22;5000763;27;20410;-76
2023/04/17 12:00:26;;;;;;;;;;;;;;;18.60;86.08;99576.47;4998091;27;19996;-77
2023/04/17 12:02:51;;;;;;;;;;;;;;;19.96;85.44;99535.47;4984216;28;19921;-78
2023/04/17 12:05:17;;;;;;;;;;;;;;;20.37;83.08;99547.69;5000609;27;19929;-77
2023/04/17 12:07:42;;;;;;;;;;;;;;;18.37;80.67;99554.25;4982448;28;19968;-77
2023/04/17 12:10:07;;;;;;;;;;;;;;;19.09;84.10;99577.22;4999094;28;19925;-76
2023/04/17 12:12:33;;;;;;;;;;;;;;;20.23;83.94;99550.34;4987186;28;19918;-77
2023/04/17 12:14:58;;;;;;;;;;;;;;;18.45;78.51;99539.97;4988312;28;20748;-77
2023/04/17 12:17:23;;;;;;;;;;;;;;;19.84;78.78;99521.38;4986585;28;20517;-77
2023/04/17 12:19:49;;;;;;;;;;;;;;;19.79;79.90;99544.31;5005379;27;19967;-77
2023/04/17 12:22:14;;;;;;;;;;;;;;;18.17;81.80;99572.75;5003450;27;19960;-77
2023/04/17 12:24:39;;;;;;;;;;;;;;;18.69;81.56;99559.44;4985410;28;19917;-77